createdAt,value
2018-02-11T00:00:38.972Z,994.84
2018-02-11T00:01:44.974Z,994.86
2018-02-11T00:02:51.419Z,994.79
2018-02-11T00:03:58.481Z,994.82
2018-02-11T00:05:03.484Z,994.76
2018-02-11T00:06:09.480Z,994.82
2018-02-11T00:07:15.529Z,994.83
2018-02-11T00:08:21.567Z,994.82
2018-02-11T00:09:27.584Z,994.83
2018-02-11T00:10:33.606Z,994.74
2018-02-11T00:11:39.722Z,994.70
2018-02-11T00:12:45.585Z,994.71
2018-02-11T00:13:51.637Z,994.63
2018-02-11T00:14:57.730Z,994.61
2018-02-11T00:16:03.674Z,994.62
2018-02-11T00:17:09.681Z,994.58
2018-02-11T00:18:15.690Z,994.58
2018-02-11T00:19:21.758Z,994.59
2018-02-11T00:20:27.737Z,994.62
2018-02-11T00:21:33.948Z,994.61
2018-02-11T00:22:39.783Z,994.63
2018-02-11T00:23:45.814Z,994.60
2018-02-11T00:24:51.321Z,994.56
2018-02-11T00:25:57.796Z,994.52
2018-02-11T00:27:03.323Z,994.52
2018-02-11T00:28:09.346Z,994.48
2018-02-11T00:29:15.908Z,994.50
2018-02-11T00:30:22.902Z,994.44
2018-02-11T00:31:27.924Z,994.49
2018-02-11T00:32:33.384Z,994.46
2018-02-11T00:33:39.995Z,994.52
2018-02-11T00:34:45.903Z,994.50
2018-02-11T00:35:51.952Z,994.50
2018-02-11T00:38:03.563Z,994.49
2018-02-11T00:39:09.966Z,994.46
2018-02-11T00:40:16.010Z,994.43
2018-02-11T00:41:21.559Z,994.43
2018-02-11T00:42:27.550Z,994.47
2018-02-11T00:43:34.053Z,994.47
2018-02-11T00:44:40.464Z,994.38
2018-02-11T00:45:46.175Z,994.35
2018-02-11T00:46:51.593Z,994.32
2018-02-11T00:47:58.152Z,994.29
2018-02-11T00:49:03.658Z,994.27
2018-02-11T00:50:10.162Z,994.23
2018-02-11T00:51:17.223Z,994.21
2018-02-11T00:52:21.721Z,994.16
2018-02-11T00:53:28.205Z,994.14
2018-02-11T00:54:33.752Z,994.09
2018-02-11T00:55:40.280Z,994.08
2018-02-11T00:56:46.279Z,994.09
2018-02-11T00:57:51.798Z,994.05
2018-02-11T00:58:58.405Z,994.04
2018-02-11T01:00:04.340Z,994.04
2018-02-11T01:01:09.919Z,994.03
2018-02-11T01:02:16.453Z,993.98
2018-02-11T01:03:22.419Z,993.99
2018-02-11T01:04:28.933Z,993.96
2018-02-11T01:05:34.040Z,993.92
2018-02-11T01:06:40.534Z,993.95
2018-02-11T01:07:46.517Z,993.91
2018-02-11T01:08:52.536Z,993.91
2018-02-11T01:09:58.547Z,993.90
2018-02-11T01:11:04.197Z,993.91
2018-02-11T01:12:10.598Z,993.87
2018-02-11T01:13:16.116Z,993.83
2018-02-11T01:14:22.633Z,993.82
2018-02-11T01:15:28.219Z,993.86
2018-02-11T01:16:34.727Z,993.83
2018-02-11T01:17:40.213Z,993.79
2018-02-11T01:18:46.722Z,993.81
2018-02-11T01:19:52.763Z,993.64
2018-02-11T01:20:59.776Z,993.67
2018-02-11T01:22:04.326Z,993.63
2018-02-11T01:23:10.351Z,993.63
2018-02-11T01:24:16.835Z,993.60
2018-02-11T01:25:22.381Z,993.58
2018-02-11T01:26:28.890Z,993.55
2018-02-11T01:27:34.449Z,993.50
2018-02-11T01:28:40.440Z,993.45
2018-02-11T01:29:46.982Z,993.44
2018-02-11T01:30:53.006Z,993.40
2018-02-11T01:31:59.006Z,993.37
2018-02-11T01:33:04.587Z,993.37
2018-02-11T01:34:11.048Z,993.33
2018-02-11T01:35:16.570Z,993.31
2018-02-11T01:36:23.092Z,993.34
2018-02-11T01:37:28.633Z,993.30
2018-02-11T01:38:35.165Z,993.35
2018-02-11T01:39:41.220Z,993.29
2018-02-11T01:40:47.191Z,993.34
2018-02-11T01:41:53.249Z,993.33
2018-02-11T01:42:58.774Z,993.32
2018-02-11T01:44:05.269Z,993.31
2018-02-11T01:45:10.807Z,993.29
2018-02-11T01:46:17.308Z,993.31
2018-02-11T01:47:23.915Z,993.26
2018-02-11T01:48:28.910Z,993.19
2018-02-11T01:49:35.388Z,993.32
2018-02-11T01:50:41.428Z,993.31
2018-02-11T01:51:47.462Z,993.23
2018-02-11T01:52:54.520Z,993.22
2018-02-11T01:53:59.521Z,993.17
2018-02-11T01:55:05.553Z,993.12
2018-02-11T01:56:11.067Z,993.07
2018-02-11T01:57:17.151Z,993.04
2018-02-11T01:58:23.657Z,992.92
2018-02-11T01:59:29.675Z,992.98
2018-02-11T02:00:35.691Z,993.02
2018-02-11T02:01:41.700Z,992.95
2018-02-11T02:02:47.754Z,992.91
2018-02-11T02:03:53.775Z,992.90
2018-02-11T02:04:59.289Z,992.91
2018-02-11T02:06:05.807Z,992.92
2018-02-11T02:07:11.850Z,992.86
2018-02-11T02:08:17.393Z,992.91
2018-02-11T02:09:23.898Z,992.92
2018-02-11T02:10:29.431Z,992.86
2018-02-11T02:11:35.945Z,992.87
2018-02-11T02:12:41.958Z,992.81
2018-02-11T02:13:47.557Z,992.82
2018-02-11T02:14:53.529Z,992.77
2018-02-11T02:15:59.551Z,992.73
2018-02-11T02:17:06.179Z,992.69
2018-02-11T02:18:11.630Z,992.64
2018-02-11T02:19:17.621Z,992.67
2018-02-11T02:20:23.652Z,992.58
2018-02-11T02:21:29.661Z,992.58
2018-02-11T02:22:36.217Z,992.57
2018-02-11T02:23:41.739Z,992.51
2018-02-11T02:24:48.239Z,992.59
2018-02-11T02:25:54.270Z,992.60
2018-02-11T02:26:59.798Z,992.55
2018-02-11T02:28:06.313Z,992.55
2018-02-11T02:29:11.889Z,992.49
2018-02-11T02:30:17.888Z,992.52
2018-02-11T02:31:23.910Z,992.45
2018-02-11T02:32:30.439Z,992.41
2018-02-11T02:33:36.471Z,992.41
2018-02-11T02:34:42.496Z,992.39
2018-02-11T02:35:48.016Z,992.43
2018-02-11T02:36:54.035Z,992.41
2018-02-11T02:38:00.196Z,992.41
2018-02-11T02:39:06.218Z,992.40
2018-02-11T02:40:12.124Z,992.34
2018-02-11T02:41:18.642Z,992.41
2018-02-11T02:42:24.170Z,992.38
2018-02-11T02:43:30.999Z,992.36
2018-02-11T02:44:36.276Z,992.37
2018-02-11T02:45:42.259Z,992.32
2018-02-11T02:46:48.272Z,992.35
2018-02-11T02:47:54.322Z,992.33
2018-02-11T02:49:00.852Z,992.32
2018-02-11T02:50:06.905Z,992.27
2018-02-11T02:51:12.407Z,992.30
2018-02-11T02:52:18.938Z,992.26
2018-02-11T02:53:24.952Z,992.26
2018-02-11T02:54:30.494Z,992.21
2018-02-11T02:55:37.019Z,992.22
2018-02-11T02:56:42.549Z,992.15
2018-02-11T02:57:49.068Z,992.12
2018-02-11T02:58:55.106Z,992.10
2018-02-11T03:00:01.484Z,992.09
2018-02-11T03:01:08.162Z,992.08
2018-02-11T03:02:13.061Z,992.02
2018-02-11T03:03:18.730Z,992.02
2018-02-11T03:04:25.471Z,991.92
2018-02-11T03:05:30.850Z,991.87
2018-02-11T03:06:37.332Z,991.85
2018-02-11T03:07:42.858Z,991.89
2018-02-11T03:08:49.353Z,991.84
2018-02-11T03:09:55.406Z,991.82
2018-02-11T03:11:00.945Z,991.83
2018-02-11T03:12:06.957Z,991.72
2018-02-11T03:13:13.498Z,991.78
2018-02-11T03:14:19.500Z,991.77
2018-02-11T03:15:25.549Z,991.74
2018-02-11T03:16:31.560Z,991.75
2018-02-11T03:17:37.594Z,991.74
2018-02-11T03:18:43.621Z,991.73
2018-02-11T03:19:49.657Z,991.66
2018-02-11T03:20:55.659Z,991.61
2018-02-11T03:22:01.193Z,991.58
2018-02-11T03:23:07.225Z,991.61
2018-02-11T03:24:13.254Z,991.54
2018-02-11T03:25:19.781Z,991.52
2018-02-11T03:26:25.805Z,991.47
2018-02-11T03:27:31.844Z,991.47
2018-02-11T03:28:37.347Z,991.47
2018-02-11T03:29:43.892Z,991.45
2018-02-11T03:30:50.882Z,991.40
2018-02-11T03:31:55.907Z,991.40
2018-02-11T03:33:02.008Z,991.37
2018-02-11T03:34:07.998Z,991.31
2018-02-11T03:35:14.009Z,991.24
2018-02-11T03:36:20.040Z,991.21
2018-02-11T03:37:26.548Z,991.16
2018-02-11T03:38:32.161Z,991.19
2018-02-11T03:39:38.217Z,991.16
2018-02-11T03:40:43.610Z,991.13
2018-02-11T03:41:50.149Z,991.11
2018-02-11T03:42:55.724Z,991.07
2018-02-11T03:44:02.202Z,991.09
2018-02-11T03:45:08.246Z,991.05
2018-02-11T03:46:14.270Z,990.97
2018-02-11T03:47:20.281Z,990.99
2018-02-11T03:48:26.305Z,990.96
2018-02-11T03:49:32.362Z,990.89
2018-02-11T03:50:38.404Z,990.96
2018-02-11T03:51:45.388Z,990.93
2018-02-11T03:52:49.957Z,990.96
2018-02-11T03:53:56.494Z,990.96
2018-02-11T03:55:02.984Z,990.91
2018-02-11T03:56:08.494Z,990.90
2018-02-11T03:57:14.514Z,990.89
2018-02-11T03:58:20.593Z,990.86
2018-02-11T03:59:26.570Z,990.86
2018-02-11T04:00:32.211Z,990.83
2018-02-11T04:01:38.668Z,990.83
2018-02-11T04:02:44.681Z,990.78
2018-02-11T04:03:50.671Z,990.76
2018-02-11T04:04:56.729Z,990.67
2018-02-11T04:06:02.748Z,990.64
2018-02-11T04:07:08.757Z,990.66
2018-02-11T04:08:14.780Z,990.68
2018-02-11T04:09:20.798Z,990.66
2018-02-11T04:10:26.881Z,990.67
2018-02-11T04:11:32.879Z,990.62
2018-02-11T04:12:38.905Z,990.66
2018-02-11T04:13:44.914Z,990.65
2018-02-11T04:14:50.460Z,990.60
2018-02-11T04:15:56.483Z,990.63
2018-02-11T04:17:03.992Z,990.61
2018-02-11T04:18:09.037Z,990.53
2018-02-11T04:19:15.063Z,990.55
2018-02-11T04:20:21.109Z,990.47
2018-02-11T04:21:26.624Z,990.50
2018-02-11T04:22:33.141Z,990.46
2018-02-11T04:23:40.156Z,990.40
2018-02-11T04:24:45.225Z,990.39
2018-02-11T04:25:51.213Z,990.30
2018-02-11T04:26:56.757Z,990.27
2018-02-11T04:28:03.279Z,990.21
2018-02-11T04:29:09.317Z,990.27
2018-02-11T04:30:15.391Z,990.27
2018-02-11T04:31:21.377Z,990.38
2018-02-11T04:32:26.907Z,990.38
2018-02-11T04:33:32.950Z,990.33
2018-02-11T04:34:39.510Z,990.36
2018-02-11T04:35:45.501Z,990.26
2018-02-11T04:36:51.492Z,990.22
2018-02-11T04:37:57.066Z,990.25
2018-02-11T04:39:03.103Z,990.18
2018-02-11T04:40:09.623Z,990.15
2018-02-11T04:41:15.110Z,990.13
2018-02-11T04:42:21.631Z,990.07
2018-02-11T04:43:27.684Z,990.08
2018-02-11T04:44:34.209Z,990.08
2018-02-11T04:45:39.262Z,990.06
2018-02-11T04:46:45.266Z,990.07
2018-02-11T04:47:51.281Z,989.98
2018-02-11T04:48:57.819Z,989.99
2018-02-11T04:50:03.860Z,989.90
2018-02-11T04:51:09.882Z,989.93
2018-02-11T04:52:15.888Z,989.78
2018-02-11T04:53:21.927Z,989.69
2018-02-11T04:54:27.953Z,989.67
2018-02-11T04:55:34.006Z,989.65
2018-02-11T04:56:39.575Z,989.64
2018-02-11T04:57:46.031Z,989.56
2018-02-11T04:58:52.188Z,989.52
2018-02-11T04:59:58.111Z,989.56
2018-02-11T05:01:03.629Z,989.45
2018-02-11T05:02:10.178Z,989.53
2018-02-11T05:03:16.186Z,989.42
2018-02-11T05:04:22.202Z,989.53
2018-02-11T05:05:27.761Z,989.52
2018-02-11T05:06:34.766Z,989.49
2018-02-11T05:07:40.288Z,989.46
2018-02-11T05:08:46.316Z,989.40
2018-02-11T05:09:51.870Z,989.37
2018-02-11T05:10:58.385Z,989.36
2018-02-11T05:12:05.410Z,989.44
2018-02-11T05:13:10.448Z,989.35
2018-02-11T05:14:16.482Z,989.32
2018-02-11T05:15:22.026Z,989.34
2018-02-11T05:16:28.096Z,989.25
2018-02-11T05:17:34.172Z,989.29
2018-02-11T05:18:40.616Z,989.30
2018-02-11T05:19:46.688Z,989.31
2018-02-11T05:20:53.691Z,989.28
2018-02-11T05:21:58.679Z,989.27
2018-02-11T05:23:04.739Z,989.28
2018-02-11T05:24:10.773Z,989.24
2018-02-11T05:25:16.821Z,989.23
2018-02-11T05:26:22.841Z,989.14
2018-02-11T05:27:28.852Z,989.15
2018-02-11T05:28:34.937Z,989.16
2018-02-11T05:29:40.920Z,989.13
2018-02-11T05:30:46.492Z,989.13
2018-02-11T05:31:52.976Z,989.12
2018-02-11T05:32:58.990Z,989.13
2018-02-11T05:34:04.549Z,989.10
2018-02-11T05:35:10.574Z,989.10
2018-02-11T05:36:16.624Z,989.03
2018-02-11T05:37:23.636Z,989.01
2018-02-11T05:38:28.696Z,988.96
2018-02-11T05:39:35.172Z,988.90
2018-02-11T05:40:41.229Z,988.86
2018-02-11T05:41:47.284Z,988.85
2018-02-11T05:42:53.292Z,988.90
2018-02-11T05:43:58.830Z,988.91
2018-02-11T05:45:04.878Z,988.83
2018-02-11T05:46:11.365Z,988.76
2018-02-11T05:47:16.886Z,988.81
2018-02-11T05:48:23.419Z,988.65
2018-02-11T05:49:29.429Z,988.70
2018-02-11T05:50:35.470Z,988.69
2018-02-11T05:51:40.990Z,988.69
2018-02-11T05:52:47.505Z,988.63
2018-02-11T05:53:53.535Z,988.57
2018-02-11T05:54:59.563Z,988.45
2018-02-11T05:56:05.070Z,988.52
2018-02-11T05:57:11.595Z,988.50
2018-02-11T05:58:17.120Z,988.55
2018-02-11T05:59:23.644Z,988.48
2018-02-11T06:00:29.690Z,988.52
2018-02-11T06:01:35.719Z,988.48
2018-02-11T06:02:41.685Z,988.48
2018-02-11T06:03:47.709Z,988.47
2018-02-11T06:04:53.250Z,988.51
2018-02-11T06:05:59.301Z,988.51
2018-02-11T06:07:06.794Z,988.50
2018-02-11T06:08:11.304Z,988.43
2018-02-11T06:09:17.811Z,988.46
2018-02-11T06:10:23.852Z,988.43
2018-02-11T06:11:29.862Z,988.36
2018-02-11T06:12:35.866Z,988.41
2018-02-11T06:13:41.887Z,988.45
2018-02-11T06:14:47.912Z,988.44
2018-02-11T06:15:53.977Z,988.38
2018-02-11T06:16:59.934Z,988.48
2018-02-11T06:18:06.004Z,988.46
2018-02-11T06:19:11.977Z,988.48
2018-02-11T06:20:18.037Z,988.41
2018-02-11T06:21:24.036Z,988.43
2018-02-11T06:22:30.021Z,988.43
2018-02-11T06:23:36.540Z,988.37
2018-02-11T06:24:41.567Z,988.44
2018-02-11T06:25:47.598Z,988.46
2018-02-11T06:26:53.608Z,988.40
2018-02-11T06:28:00.152Z,988.33
2018-02-11T06:29:07.116Z,988.33
2018-02-11T06:30:11.676Z,988.36
2018-02-11T06:31:18.169Z,988.34
2018-02-11T06:32:24.160Z,988.31
2018-02-11T06:33:30.192Z,988.35
2018-02-11T06:34:36.229Z,988.35
2018-02-11T06:35:41.751Z,988.28
2018-02-11T06:36:47.743Z,988.23
2018-02-11T06:37:53.742Z,988.23
2018-02-11T06:39:00.254Z,988.18
2018-02-11T06:40:05.801Z,988.15
2018-02-11T06:41:12.301Z,988.15
2018-02-11T06:42:17.794Z,988.06
2018-02-11T06:43:24.304Z,988.07
2018-02-11T06:44:29.829Z,988.01
2018-02-11T06:45:36.367Z,987.97
2018-02-11T06:46:42.889Z,987.96
2018-02-11T06:47:48.356Z,988.03
2018-02-11T06:48:53.872Z,987.93
2018-02-11T06:50:00.383Z,988.00
2018-02-11T06:51:06.404Z,987.87
2018-02-11T06:52:12.399Z,987.90
2018-02-11T06:53:17.945Z,987.88
2018-02-11T06:54:23.928Z,987.94
2018-02-11T06:55:30.458Z,987.93
2018-02-11T06:56:36.446Z,987.88
2018-02-11T06:57:42.460Z,987.86
2018-02-11T06:58:48.973Z,987.85
2018-02-11T06:59:53.987Z,987.85
2018-02-11T07:01:01.116Z,987.89
2018-02-11T07:02:06.521Z,987.87
2018-02-11T07:03:12.033Z,987.89
2018-02-11T07:04:18.161Z,987.99
2018-02-11T07:05:24.185Z,987.98
2018-02-11T07:06:30.569Z,987.96
2018-02-11T07:07:36.168Z,987.96
2018-02-11T07:08:42.606Z,987.89
2018-02-11T07:09:48.112Z,987.81
2018-02-11T07:10:55.164Z,987.87
2018-02-11T07:12:00.141Z,987.88
2018-02-11T07:13:06.657Z,987.90
2018-02-11T07:14:12.193Z,987.98
2018-02-11T07:15:18.211Z,987.91
2018-02-11T07:16:24.703Z,987.94
2018-02-11T07:17:30.753Z,987.95
2018-02-11T07:18:36.231Z,987.94
2018-02-11T07:19:42.245Z,987.92
2018-02-11T07:20:48.776Z,987.92
2018-02-11T07:21:54.764Z,987.89
2018-02-11T07:23:00.800Z,987.90
2018-02-11T07:24:06.806Z,987.86
2018-02-11T07:25:12.805Z,987.84
2018-02-11T07:26:18.363Z,987.90
2018-02-11T07:27:24.759Z,987.88
2018-02-11T07:28:31.047Z,987.80
2018-02-11T07:29:36.878Z,987.81
2018-02-11T07:30:42.956Z,987.84
2018-02-11T07:31:48.915Z,987.86
2018-02-11T07:32:54.925Z,987.88
2018-02-11T07:35:07.011Z,987.86
2018-02-11T07:36:12.485Z,987.82
2018-02-11T07:37:19.283Z,987.85
2018-02-11T07:38:24.999Z,987.85
2018-02-11T07:39:31.000Z,987.83
2018-02-11T07:40:36.545Z,987.84
2018-02-11T07:41:43.264Z,987.84
2018-02-11T07:42:49.046Z,987.91
2018-02-11T07:43:54.583Z,987.92
2018-02-11T07:45:01.090Z,987.91
2018-02-11T07:46:07.108Z,987.83
2018-02-11T07:47:13.144Z,987.93
2018-02-11T07:48:19.129Z,987.86
2018-02-11T07:49:25.136Z,987.89
2018-02-11T07:50:31.317Z,987.84
2018-02-11T07:51:37.175Z,987.84
2018-02-11T07:52:43.265Z,987.85
2018-02-11T07:53:48.702Z,987.83
2018-02-11T07:54:55.584Z,987.82
2018-02-11T07:56:01.243Z,987.78
2018-02-11T07:57:06.803Z,987.83
2018-02-11T07:58:14.249Z,987.71
2018-02-11T08:00:25.319Z,987.78
2018-02-11T08:01:31.074Z,987.83
2018-02-11T08:02:37.327Z,987.96
2018-02-11T08:03:43.402Z,987.90
2018-02-11T08:05:55.416Z,987.82
2018-02-11T08:07:00.902Z,987.81
2018-02-11T08:08:06.946Z,987.77
2018-02-11T08:09:13.451Z,987.79
2018-02-11T08:10:19.457Z,987.82
2018-02-11T08:11:25.525Z,987.84
2018-02-11T08:12:30.999Z,987.82
2018-02-11T08:13:37.506Z,987.78
2018-02-11T08:14:43.517Z,987.82
2018-02-11T08:15:49.127Z,987.82
2018-02-11T08:16:55.551Z,987.80
2018-02-11T08:18:01.608Z,987.81
2018-02-11T08:19:08.590Z,987.84
2018-02-11T08:20:13.175Z,987.78
2018-02-11T08:21:19.646Z,987.79
2018-02-11T08:22:25.152Z,987.82
2018-02-11T08:23:31.191Z,987.75
2018-02-11T08:24:37.699Z,987.80
2018-02-11T08:25:43.226Z,987.77
2018-02-11T08:26:49.829Z,987.74
2018-02-11T08:27:55.246Z,987.79
2018-02-11T08:29:01.789Z,987.85
2018-02-11T08:30:07.786Z,987.78
2018-02-11T08:31:13.839Z,987.77
2018-02-11T08:32:19.317Z,987.69
2018-02-11T08:33:25.335Z,987.68
2018-02-11T08:34:31.398Z,987.71
2018-02-11T08:35:37.883Z,987.67
2018-02-11T08:36:43.392Z,987.77
2018-02-11T08:37:49.412Z,987.72
2018-02-11T08:38:55.432Z,987.75
2018-02-11T08:40:01.438Z,987.69
2018-02-11T08:41:07.785Z,987.67
2018-02-11T08:42:13.999Z,987.66
2018-02-11T08:43:19.993Z,987.68
2018-02-11T08:44:25.514Z,987.75
2018-02-11T08:45:31.596Z,987.72
2018-02-11T08:46:37.578Z,987.73
2018-02-11T08:47:43.617Z,987.71
2018-02-11T08:48:49.589Z,987.60
2018-02-11T08:49:56.189Z,987.65
2018-02-11T08:51:02.169Z,987.72
2018-02-11T08:52:07.673Z,987.69
2018-02-11T08:53:14.164Z,987.79
2018-02-11T08:54:20.182Z,987.73
2018-02-11T08:55:25.710Z,987.74
2018-02-11T08:56:32.309Z,987.76
2018-02-11T08:57:38.242Z,987.75
2018-02-11T08:58:43.799Z,987.78
2018-02-11T08:59:51.290Z,987.74
2018-02-11T09:00:56.344Z,987.73
2018-02-11T09:02:02.286Z,987.67
2018-02-11T09:03:08.332Z,987.67
2018-02-11T09:04:14.332Z,987.62
2018-02-11T09:05:19.901Z,987.62
2018-02-11T09:06:26.408Z,987.64
2018-02-11T09:07:32.383Z,987.63
2018-02-11T09:08:37.902Z,987.55
2018-02-11T09:09:43.966Z,987.56
2018-02-11T09:10:50.485Z,987.61
2018-02-11T09:11:55.969Z,987.57
2018-02-11T09:13:02.501Z,987.52
2018-02-11T09:14:08.008Z,987.55
2018-02-11T09:15:14.024Z,987.49
2018-02-11T09:16:20.539Z,987.45
2018-02-11T09:17:26.154Z,987.50
2018-02-11T09:18:32.565Z,987.47
2018-02-11T09:19:38.609Z,987.48
2018-02-11T09:20:44.119Z,987.50
2018-02-11T09:21:50.137Z,987.48
2018-02-11T09:22:56.629Z,987.53
2018-02-11T09:24:02.661Z,987.52
2018-02-11T09:25:08.179Z,987.53
2018-02-11T09:26:14.261Z,987.56
2018-02-11T09:27:20.716Z,987.53
2018-02-11T09:28:26.262Z,987.52
2018-02-11T09:29:32.317Z,987.49
2018-02-11T09:30:38.362Z,987.48
2018-02-11T09:31:44.329Z,987.51
2018-02-11T09:32:50.322Z,987.44
2018-02-11T09:33:56.334Z,987.48
2018-02-11T09:35:02.897Z,987.47
2018-02-11T09:36:08.948Z,987.49
2018-02-11T09:37:14.915Z,987.50
2018-02-11T09:38:20.952Z,987.46
2018-02-11T09:39:26.957Z,987.48
2018-02-11T09:40:32.995Z,987.43
2018-02-11T09:41:38.685Z,987.37
2018-02-11T09:42:44.992Z,987.35
2018-02-11T09:43:52.025Z,987.36
2018-02-11T09:44:57.053Z,987.31
2018-02-11T09:46:03.443Z,987.29
2018-02-11T09:47:09.098Z,987.23
2018-02-11T09:48:15.138Z,987.19
2018-02-11T09:49:21.201Z,987.17
2018-02-11T09:50:28.154Z,987.16
2018-02-11T09:51:32.708Z,987.12
2018-02-11T09:52:39.289Z,987.12
2018-02-11T09:53:45.293Z,987.12
2018-02-11T09:54:50.763Z,987.06
2018-02-11T09:55:57.307Z,987.14
2018-02-11T09:57:03.343Z,987.08
2018-02-11T09:58:08.858Z,987.10
2018-02-11T09:59:14.907Z,987.11
2018-02-11T10:00:21.397Z,987.15
2018-02-11T10:01:27.566Z,987.15
2018-02-11T10:02:33.456Z,987.14
2018-02-11T10:03:39.019Z,987.17
2018-02-11T10:04:45.018Z,987.17
2018-02-11T10:05:51.040Z,987.14
2018-02-11T10:06:57.575Z,987.14
2018-02-11T10:08:03.095Z,987.12
2018-02-11T10:09:09.627Z,987.22
2018-02-11T10:10:15.193Z,987.18
2018-02-11T10:11:21.409Z,987.14
2018-02-11T10:12:27.226Z,987.14
2018-02-11T10:13:33.750Z,987.17
2018-02-11T10:14:39.789Z,987.16
2018-02-11T10:15:45.327Z,987.17
2018-02-11T10:16:51.373Z,987.15
2018-02-11T10:17:58.878Z,986.99
2018-02-11T10:19:03.414Z,987.12
2018-02-11T10:20:09.454Z,987.14
2018-02-11T10:21:15.502Z,987.12
2018-02-11T10:22:22.521Z,987.08
2018-02-11T10:23:28.566Z,987.15
2018-02-11T10:24:33.588Z,987.11
2018-02-11T10:25:39.908Z,987.10
2018-02-11T10:26:45.853Z,987.06
2018-02-11T10:27:51.670Z,987.08
2018-02-11T10:28:57.711Z,987.04
2018-02-11T10:30:04.040Z,986.98
2018-02-11T10:31:09.777Z,987.09
2018-02-11T10:32:15.800Z,987.06
2018-02-11T10:33:21.814Z,987.04
2018-02-11T10:34:27.853Z,986.99
2018-02-11T10:35:33.879Z,986.97
2018-02-11T10:36:40.931Z,986.97
2018-02-11T10:37:45.936Z,987.06
2018-02-11T10:38:51.986Z,987.05
2018-02-11T10:39:58.506Z,987.06
2018-02-11T10:41:04.178Z,987.03
2018-02-11T10:42:10.191Z,987.13
2018-02-11T10:43:16.148Z,987.10
2018-02-11T10:44:22.164Z,987.14
2018-02-11T10:45:29.679Z,987.06
2018-02-11T10:46:34.760Z,987.05
2018-02-11T10:47:40.779Z,987.05
2018-02-11T10:48:46.806Z,987.11
2018-02-11T10:49:52.366Z,987.05
2018-02-11T10:50:58.426Z,987.04
2018-02-11T10:52:04.460Z,987.00
2018-02-11T10:53:10.980Z,986.99
2018-02-11T10:54:16.527Z,986.91
2018-02-11T10:55:22.589Z,986.94
2018-02-11T10:56:28.652Z,986.94
2018-02-11T10:57:34.685Z,986.95
2018-02-11T10:58:40.728Z,986.95
2018-02-11T10:59:46.774Z,986.95
2018-02-11T11:00:53.356Z,986.89
2018-02-11T11:01:59.419Z,986.85
2018-02-11T11:03:05.474Z,986.83
2018-02-11T11:04:11.029Z,986.85
2018-02-11T11:05:17.124Z,986.84
2018-02-11T11:06:23.742Z,986.80
2018-02-11T11:07:29.684Z,986.85
2018-02-11T11:08:35.784Z,986.90
2018-02-11T11:09:41.801Z,986.80
2018-02-11T11:10:48.016Z,986.80
2018-02-11T11:11:53.952Z,986.84
2018-02-11T11:12:59.985Z,986.83
2018-02-11T11:14:06.043Z,986.79
2018-02-11T11:15:12.186Z,986.80
2018-02-11T11:16:19.182Z,986.77
2018-02-11T11:17:24.248Z,986.78
2018-02-11T11:18:30.283Z,986.79
2018-02-11T11:19:36.349Z,986.86
2018-02-11T11:20:42.408Z,986.87
2018-02-11T11:21:48.494Z,986.90
2018-02-11T11:22:54.521Z,986.89
2018-02-11T11:24:00.189Z,986.84
2018-02-11T11:25:06.631Z,986.88
2018-02-11T11:26:12.727Z,986.84
2018-02-11T11:27:19.741Z,986.86
2018-02-11T11:28:24.799Z,986.78
2018-02-11T11:29:30.366Z,986.75
2018-02-11T11:30:36.433Z,986.79
2018-02-11T11:31:42.507Z,986.80
2018-02-11T11:32:48.548Z,986.84
2018-02-11T11:33:55.130Z,986.86
2018-02-11T11:35:00.957Z,986.84
2018-02-11T11:36:06.729Z,986.84
2018-02-11T11:37:13.308Z,986.83
2018-02-11T11:38:18.849Z,986.89
2018-02-11T11:39:25.432Z,986.81
2018-02-11T11:40:31.477Z,986.79
2018-02-11T11:41:37.069Z,986.83
2018-02-11T11:42:43.123Z,986.81
2018-02-11T11:43:49.195Z,986.82
2018-02-11T11:44:55.776Z,986.84
2018-02-11T11:46:01.850Z,986.85
2018-02-11T11:47:07.926Z,986.81
2018-02-11T11:48:14.011Z,986.81
2018-02-11T11:49:20.498Z,986.82
2018-02-11T11:50:26.194Z,986.85
2018-02-11T11:51:31.887Z,986.80
2018-02-11T11:52:38.349Z,986.81
2018-02-11T11:53:44.390Z,986.78
2018-02-11T11:54:49.977Z,986.70
2018-02-11T11:55:56.823Z,986.70
2018-02-11T11:57:02.636Z,986.71
2018-02-11T11:58:08.702Z,986.71
2018-02-11T11:59:14.777Z,986.70
2018-02-11T12:00:20.911Z,986.73
2018-02-11T12:01:26.968Z,986.71
2018-02-11T12:02:33.102Z,986.71
2018-02-11T12:03:39.138Z,986.72
2018-02-11T12:04:45.221Z,986.76
2018-02-11T12:05:51.323Z,986.73
2018-02-11T12:06:57.403Z,986.72
2018-02-11T12:08:03.724Z,986.66
2018-02-11T12:09:09.604Z,986.59
2018-02-11T12:10:15.648Z,986.48
2018-02-11T12:11:21.692Z,986.56
2018-02-11T12:12:27.818Z,986.55
2018-02-11T12:13:33.892Z,986.59
2018-02-11T12:14:39.955Z,986.51
2018-02-11T12:15:46.022Z,986.53
2018-02-11T12:16:52.185Z,986.44
2018-02-11T12:17:58.271Z,986.53
2018-02-11T12:19:04.415Z,986.54
2018-02-11T12:20:10.397Z,986.59
2018-02-11T12:21:16.564Z,986.50
2018-02-11T12:23:28.696Z,986.51
2018-02-11T12:24:34.728Z,986.45
2018-02-11T12:25:40.797Z,986.52
2018-02-11T12:28:58.891Z,986.42
2018-02-11T12:30:05.290Z,986.41
2018-02-11T12:31:11.353Z,986.40
2018-02-11T12:32:17.433Z,986.41
2018-02-11T12:33:23.442Z,986.40
2018-02-11T12:34:29.535Z,986.38
2018-02-11T12:35:35.753Z,986.37
2018-02-11T12:36:41.779Z,986.32
2018-02-11T12:37:48.030Z,986.29
2018-02-11T12:38:53.972Z,986.28
2018-02-11T12:40:00.218Z,986.28
2018-02-11T12:41:06.538Z,986.29
2018-02-11T12:42:12.316Z,986.27
2018-02-11T12:43:18.736Z,986.27
2018-02-11T12:44:24.574Z,986.23
2018-02-11T12:45:31.748Z,986.25
2018-02-11T12:46:36.913Z,986.21
2018-02-11T12:47:43.003Z,986.19
2018-02-11T12:48:49.170Z,986.12
2018-02-11T12:49:55.311Z,986.12
2018-02-11T12:51:01.450Z,986.12
2018-02-11T12:52:07.613Z,986.18
2018-02-11T12:53:13.788Z,986.14
2018-02-11T12:54:20.916Z,986.08
2018-02-11T12:56:32.307Z,986.15
2018-02-11T12:57:38.448Z,986.10
2018-02-11T12:58:44.736Z,986.13
2018-02-11T12:59:50.868Z,986.11
2018-02-11T13:02:03.232Z,986.12
2018-02-11T13:03:09.379Z,986.10
2018-02-11T13:04:15.718Z,986.13
2018-02-11T13:05:21.854Z,986.14
2018-02-11T13:06:28.123Z,986.12
2018-02-11T13:07:34.693Z,986.13
2018-02-11T13:08:40.592Z,986.09
2018-02-11T13:09:46.762Z,986.10
2018-02-11T13:11:59.281Z,986.06
2018-02-11T13:13:05.522Z,986.09
2018-02-11T13:17:05.623Z,986.08
2018-02-11T13:18:11.383Z,986.15
2018-02-11T13:19:18.066Z,986.11
2018-02-11T13:20:24.309Z,986.05
2018-02-11T13:21:30.593Z,986.08
2018-02-11T13:22:36.688Z,986.04
2018-02-11T13:23:42.872Z,986.08
2018-02-11T13:24:49.232Z,986.05
2018-02-11T13:25:55.285Z,986.08
2018-02-11T13:27:01.506Z,986.04
2018-02-11T13:28:07.736Z,986.10
2018-02-11T13:29:13.926Z,986.03
2018-02-11T13:30:20.153Z,986.04
2018-02-11T13:31:26.344Z,986.03
2018-02-11T13:32:33.439Z,986.06
2018-02-11T13:33:39.665Z,986.06
2018-02-11T13:34:44.827Z,986.08
2018-02-11T13:35:50.986Z,986.06
2018-02-11T13:36:57.202Z,986.00
2018-02-11T13:38:03.329Z,985.97
2018-02-11T13:39:09.554Z,986.01
2018-02-11T13:40:15.680Z,986.01
2018-02-11T13:41:21.752Z,986.02
2018-02-11T13:42:27.923Z,986.02
2018-02-11T13:43:34.056Z,986.01
2018-02-11T13:44:40.256Z,986.04
2018-02-11T13:45:46.405Z,986.08
2018-02-11T13:46:52.526Z,986.08
2018-02-11T13:47:58.794Z,986.07
2018-02-11T13:50:10.969Z,986.03
2018-02-11T13:51:17.312Z,986.07
2018-02-11T13:52:23.233Z,986.04
2018-02-11T13:53:29.404Z,986.00
2018-02-11T13:54:35.518Z,986.00
2018-02-11T13:55:42.695Z,986.02
2018-02-11T13:56:47.875Z,986.03
2018-02-11T13:57:53.936Z,986.01
2018-02-11T13:59:00.056Z,985.99